sensor_id;sensor_type;location;lat;lon;timestamp;temperature;humidity
10802;DHT22;5453;50.852;7.102;2022-10-16T00:01:05;15.70;99.90
10802;DHT22;5453;50.852;7.102;2022-10-16T00:03:38;15.70;99.90
10802;DHT22;5453;50.852;7.102;2022-10-16T00:06:11;15.70;99.90
10802;DHT22;5453;50.852;7.102;2022-10-16T00:08:46;15.70;99.90
10802;DHT22;5453;50.852;7.102;2022-10-16T00:11:20;15.70;99.90
10802;DHT22;5453;50.852;7.102;2022-10-16T00:13:54;15.70;99.90
10802;DHT22;5453;50.852;7.102;2022-10-16T00:16:27;15.70;99.90
10802;DHT22;5453;50.852;7.102;2022-10-16T00:18:59;15.70;99.90
10802;DHT22;5453;50.852;7.102;2022-10-16T00:21:32;15.70;99.90
10802;DHT22;5453;50.852;7.102;2022-10-16T00:24:09;15.60;99.90
10802;DHT22;5453;50.852;7.102;2022-10-16T00:26:42;15.60;99.90
10802;DHT22;5453;50.852;7.102;2022-10-16T00:29:14;15.60;99.90
10802;DHT22;5453;50.852;7.102;2022-10-16T00:31:46;15.60;99.90
10802;DHT22;5453;50.852;7.102;2022-10-16T00:34:19;15.50;99.90
10802;DHT22;5453;50.852;7.102;2022-10-16T00:36:51;15.50;99.90
10802;DHT22;5453;50.852;7.102;2022-10-16T00:39:25;15.50;99.90
10802;DHT22;5453;50.852;7.102;2022-10-16T00:41:57;15.40;99.90
10802;DHT22;5453;50.852;7.102;2022-10-16T00:44:45;15.40;99.90
10802;DHT22;5453;50.852;7.102;2022-10-16T00:47:24;15.40;99.90
10802;DHT22;5453;50.852;7.102;2022-10-16T00:50:01;15.30;99.90
10802;DHT22;5453;50.852;7.102;2022-10-16T00:52:39;15.30;99.90
10802;DHT22;5453;50.852;7.102;2022-10-16T00:55:15;15.40;99.90
10802;DHT22;5453;50.852;7.102;2022-10-16T00:57:48;15.30;99.90
10802;DHT22;5453;50.852;7.102;2022-10-16T01:00:23;15.40;99.90
10802;DHT22;5453;50.852;7.102;2022-10-16T01:02:58;15.40;99.90
10802;DHT22;5453;50.852;7.102;2022-10-16T01:05:33;15.40;99.90
10802;DHT22;5453;50.852;7.102;2022-10-16T01:08:13;15.40;99.90
10802;DHT22;5453;50.852;7.102;2022-10-16T01:10:54;15.40;99.90
10802;DHT22;5453;50.852;7.102;2022-10-16T01:13:33;15.40;99.90
10802;DHT22;5453;50.852;7.102;2022-10-16T01:16:13;15.40;99.90
10802;DHT22;5453;50.852;7.102;2022-10-16T01:18:52;15.40;99.90
10802;DHT22;5453;50.852;7.102;2022-10-16T01:21:29;15.30;99.90
10802;DHT22;5453;50.852;7.102;2022-10-16T01:24:11;15.30;99.90
10802;DHT22;5453;50.852;7.102;2022-10-16T01:27:05;15.30;99.90
10802;DHT22;5453;50.852;7.102;2022-10-16T01:29:44;15.30;99.90
10802;DHT22;5453;50.852;7.102;2022-10-16T01:32:28;15.30;99.90
10802;DHT22;5453;50.852;7.102;2022-10-16T01:35:07;15.20;99.90
10802;DHT22;5453;50.852;7.102;2022-10-16T01:37:46;15.20;99.90
10802;DHT22;5453;50.852;7.102;2022-10-16T01:40:25;15.20;99.90
10802;DHT22;5453;50.852;7.102;2022-10-16T01:43:04;15.10;99.90
10802;DHT22;5453;50.852;7.102;2022-10-16T01:45:41;15.10;99.90
10802;DHT22;5453;50.852;7.102;2022-10-16T01:48:17;15.10;99.90
10802;DHT22;5453;50.852;7.102;2022-10-16T01:50:57;15.10;99.90
10802;DHT22;5453;50.852;7.102;2022-10-16T01:53:32;15.10;99.90
10802;DHT22;5453;50.852;7.102;2022-10-16T01:56:07;15.00;99.90
10802;DHT22;5453;50.852;7.102;2022-10-16T01:58:45;15.00;99.90
10802;DHT22;5453;50.852;7.102;2022-10-16T02:01:23;15.00;99.90
10802;DHT22;5453;50.852;7.102;2022-10-16T02:04:02;15.00;99.90
10802;DHT22;5453;50.852;7.102;2022-10-16T02:06:36;15.00;99.90
10802;DHT22;5453;50.852;7.102;2022-10-16T02:09:08;15.00;99.90
10802;DHT22;5453;50.852;7.102;2022-10-16T02:11:41;15.00;99.90
10802;DHT22;5453;50.852;7.102;2022-10-16T02:14:15;15.00;99.90
10802;DHT22;5453;50.852;7.102;2022-10-16T02:16:47;15.00;99.90
10802;DHT22;5453;50.852;7.102;2022-10-16T02:19:21;15.00;99.90
10802;DHT22;5453;50.852;7.102;2022-10-16T02:21:56;15.00;99.90
10802;DHT22;5453;50.852;7.102;2022-10-16T02:24:33;15.00;99.90
10802;DHT22;5453;50.852;7.102;2022-10-16T02:27:11;15.00;99.90
10802;DHT22;5453;50.852;7.102;2022-10-16T02:29:50;15.00;99.90
10802;DHT22;5453;50.852;7.102;2022-10-16T02:32:31;15.00;99.90
10802;DHT22;5453;50.852;7.102;2022-10-16T02:35:06;15.00;99.90
10802;DHT22;5453;50.852;7.102;2022-10-16T02:37:40;15.00;99.90
10802;DHT22;5453;50.852;7.102;2022-10-16T02:40:13;15.10;99.90
10802;DHT22;5453;50.852;7.102;2022-10-16T02:42:50;15.10;99.90
10802;DHT22;5453;50.852;7.102;2022-10-16T02:45:26;15.10;99.90
10802;DHT22;5453;50.852;7.102;2022-10-16T02:47:58;15.10;99.90
10802;DHT22;5453;50.852;7.102;2022-10-16T02:50:30;15.10;99.90
10802;DHT22;5453;50.852;7.102;2022-10-16T02:53:02;15.10;99.90
10802;DHT22;5453;50.852;7.102;2022-10-16T02:55:34;15.10;99.90
10802;DHT22;5453;50.852;7.102;2022-10-16T02:58:07;15.10;99.90
10802;DHT22;5453;50.852;7.102;2022-10-16T03:00:41;15.10;99.90
10802;DHT22;5453;50.852;7.102;2022-10-16T03:03:15;15.10;99.90
10802;DHT22;5453;50.852;7.102;2022-10-16T03:05:47;15.10;99.90
10802;DHT22;5453;50.852;7.102;2022-10-16T03:08:19;15.10;99.90
10802;DHT22;5453;50.852;7.102;2022-10-16T03:10:54;15.10;99.90
10802;DHT22;5453;50.852;7.102;2022-10-16T03:13:26;15.10;99.90
10802;DHT22;5453;50.852;7.102;2022-10-16T03:16:00;15.10;99.90
10802;DHT22;5453;50.852;7.102;2022-10-16T03:18:34;15.10;99.90
10802;DHT22;5453;50.852;7.102;2022-10-16T03:21:09;15.10;99.90
10802;DHT22;5453;50.852;7.102;2022-10-16T03:23:44;15.10;99.90
10802;DHT22;5453;50.852;7.102;2022-10-16T03:26:17;15.10;99.90
10802;DHT22;5453;50.852;7.102;2022-10-16T03:28:49;15.10;99.90
10802;DHT22;5453;50.852;7.102;2022-10-16T03:31:23;15.10;99.90
10802;DHT22;5453;50.852;7.102;2022-10-16T03:33:55;15.10;99.90
10802;DHT22;5453;50.852;7.102;2022-10-16T03:36:28;15.10;99.90
10802;DHT22;5453;50.852;7.102;2022-10-16T03:39:00;15.10;99.90
10802;DHT22;5453;50.852;7.102;2022-10-16T03:41:32;15.10;99.90
10802;DHT22;5453;50.852;7.102;2022-10-16T03:44:05;15.10;99.90
10802;DHT22;5453;50.852;7.102;2022-10-16T03:46:38;15.00;99.90
10802;DHT22;5453;50.852;7.102;2022-10-16T03:49:11;15.00;99.90
10802;DHT22;5453;50.852;7.102;2022-10-16T03:51:43;15.00;99.90
10802;DHT22;5453;50.852;7.102;2022-10-16T03:54:15;15.00;99.90
10802;DHT22;5453;50.852;7.102;2022-10-16T03:56:47;15.00;99.90
10802;DHT22;5453;50.852;7.102;2022-10-16T03:59:19;15.00;99.90
10802;DHT22;5453;50.852;7.102;2022-10-16T04:01:52;15.00;99.90
10802;DHT22;5453;50.852;7.102;2022-10-16T04:04:24;15.00;99.90
10802;DHT22;5453;50.852;7.102;2022-10-16T04:06:56;15.00;99.90
10802;DHT22;5453;50.852;7.102;2022-10-16T04:09:28;15.00;99.90
10802;DHT22;5453;50.852;7.102;2022-10-16T04:12:00;15.00;99.90
10802;DHT22;5453;50.852;7.102;2022-10-16T04:14:33;15.00;99.90
10802;DHT22;5453;50.852;7.102;2022-10-16T04:17:06;15.00;99.90
10802;DHT22;5453;50.852;7.102;2022-10-16T04:19:38;15.10;99.90
10802;DHT22;5453;50.852;7.102;2022-10-16T04:22:11;15.10;99.90
10802;DHT22;5453;50.852;7.102;2022-10-16T04:24:43;15.10;99.90
10802;DHT22;5453;50.852;7.102;2022-10-16T04:27:15;15.10;99.90
10802;DHT22;5453;50.852;7.102;2022-10-16T04:29:47;15.10;99.90
10802;DHT22;5453;50.852;7.102;2022-10-16T04:32:21;15.10;99.90
10802;DHT22;5453;50.852;7.102;2022-10-16T04:34:53;15.20;99.90
10802;DHT22;5453;50.852;7.102;2022-10-16T04:37:25;15.20;99.90
10802;DHT22;5453;50.852;7.102;2022-10-16T04:39:58;15.20;99.90
10802;DHT22;5453;50.852;7.102;2022-10-16T04:42:30;15.20;99.90
10802;DHT22;5453;50.852;7.102;2022-10-16T04:45:02;15.20;99.90
10802;DHT22;5453;50.852;7.102;2022-10-16T04:47:36;15.20;99.90
10802;DHT22;5453;50.852;7.102;2022-10-16T04:50:09;15.20;99.90
10802;DHT22;5453;50.852;7.102;2022-10-16T04:52:41;15.20;99.90
10802;DHT22;5453;50.852;7.102;2022-10-16T04:55:13;15.30;99.90
10802;DHT22;5453;50.852;7.102;2022-10-16T04:57:45;15.30;99.90
10802;DHT22;5453;50.852;7.102;2022-10-16T05:00:17;15.30;99.90
10802;DHT22;5453;50.852;7.102;2022-10-16T05:02:51;15.30;99.90
10802;DHT22;5453;50.852;7.102;2022-10-16T05:05:23;15.30;99.90
10802;DHT22;5453;50.852;7.102;2022-10-16T05:07:55;15.30;99.90
10802;DHT22;5453;50.852;7.102;2022-10-16T05:10:27;15.30;99.90
10802;DHT22;5453;50.852;7.102;2022-10-16T05:12:59;15.30;99.90
10802;DHT22;5453;50.852;7.102;2022-10-16T05:15:31;15.30;99.90
10802;DHT22;5453;50.852;7.102;2022-10-16T05:18:05;15.30;99.90
10802;DHT22;5453;50.852;7.102;2022-10-16T05:20:37;15.30;99.90
10802;DHT22;5453;50.852;7.102;2022-10-16T05:23:09;15.30;99.90
10802;DHT22;5453;50.852;7.102;2022-10-16T05:25:42;15.30;99.90
10802;DHT22;5453;50.852;7.102;2022-10-16T05:28:14;15.30;99.90
10802;DHT22;5453;50.852;7.102;2022-10-16T05:30:46;15.30;99.90
10802;DHT22;5453;50.852;7.102;2022-10-16T05:33:21;15.30;99.90
10802;DHT22;5453;50.852;7.102;2022-10-16T05:35:54;15.30;99.90
10802;DHT22;5453;50.852;7.102;2022-10-16T05:38:26;15.30;99.90
10802;DHT22;5453;50.852;7.102;2022-10-16T05:40:58;15.30;99.90
10802;DHT22;5453;50.852;7.102;2022-10-16T05:43:31;15.30;99.90
10802;DHT22;5453;50.852;7.102;2022-10-16T05:46:05;15.30;99.90
10802;DHT22;5453;50.852;7.102;2022-10-16T05:48:39;15.30;99.90
10802;DHT22;5453;50.852;7.102;2022-10-16T05:51:12;15.20;99.90
10802;DHT22;5453;50.852;7.102;2022-10-16T05:53:45;15.20;99.90
10802;DHT22;5453;50.852;7.102;2022-10-16T05:56:18;15.20;99.90
10802;DHT22;5453;50.852;7.102;2022-10-16T05:58:50;15.20;99.90
10802;DHT22;5453;50.852;7.102;2022-10-16T06:01:22;15.20;99.90
10802;DHT22;5453;50.852;7.102;2022-10-16T06:03:56;15.20;99.90
10802;DHT22;5453;50.852;7.102;2022-10-16T06:06:28;15.20;99.90
10802;DHT22;5453;50.852;7.102;2022-10-16T06:09:01;15.20;99.90
10802;DHT22;5453;50.852;7.102;2022-10-16T06:11:33;15.20;99.90
10802;DHT22;5453;50.852;7.102;2022-10-16T06:14:05;15.10;99.90
10802;DHT22;5453;50.852;7.102;2022-10-16T06:16:38;15.10;99.90
10802;DHT22;5453;50.852;7.102;2022-10-16T06:19:11;15.00;99.90
10802;DHT22;5453;50.852;7.102;2022-10-16T06:21:43;15.10;99.90
10802;DHT22;5453;50.852;7.102;2022-10-16T06:24:15;15.00;99.90
10802;DHT22;5453;50.852;7.102;2022-10-16T06:26:47;15.00;99.90
10802;DHT22;5453;50.852;7.102;2022-10-16T06:29:19;15.00;99.90
10802;DHT22;5453;50.852;7.102;2022-10-16T06:31:52;15.00;99.90
10802;DHT22;5453;50.852;7.102;2022-10-16T06:34:25;15.00;99.90
10802;DHT22;5453;50.852;7.102;2022-10-16T06:36:57;14.90;99.90
10802;DHT22;5453;50.852;7.102;2022-10-16T06:39:29;14.90;99.90
10802;DHT22;5453;50.852;7.102;2022-10-16T06:42:01;14.90;99.90
10802;DHT22;5453;50.852;7.102;2022-10-16T06:44:40;15.00;99.90
10802;DHT22;5453;50.852;7.102;2022-10-16T06:47:12;15.00;99.90
10802;DHT22;5453;50.852;7.102;2022-10-16T06:49:46;15.00;99.90
10802;DHT22;5453;50.852;7.102;2022-10-16T06:52:18;15.10;99.90
10802;DHT22;5453;50.852;7.102;2022-10-16T06:54:50;15.20;99.90
10802;DHT22;5453;50.852;7.102;2022-10-16T06:57:22;15.20;99.90
10802;DHT22;5453;50.852;7.102;2022-10-16T06:59:54;15.30;99.90
10802;DHT22;5453;50.852;7.102;2022-10-16T07:02:26;15.40;99.90
10802;DHT22;5453;50.852;7.102;2022-10-16T07:05:00;15.50;99.90
10802;DHT22;5453;50.852;7.102;2022-10-16T07:07:32;15.50;99.90
10802;DHT22;5453;50.852;7.102;2022-10-16T07:10:04;15.70;99.90
10802;DHT22;5453;50.852;7.102;2022-10-16T07:12:37;16.00;99.90
10802;DHT22;5453;50.852;7.102;2022-10-16T07:15:09;16.20;99.90
10802;DHT22;5453;50.852;7.102;2022-10-16T07:17:43;16.30;99.90
10802;DHT22;5453;50.852;7.102;2022-10-16T07:20:16;16.30;99.90
10802;DHT22;5453;50.852;7.102;2022-10-16T07:22:48;16.40;99.90
10802;DHT22;5453;50.852;7.102;2022-10-16T07:25:20;16.30;99.90
10802;DHT22;5453;50.852;7.102;2022-10-16T07:27:52;16.30;99.90
10802;DHT22;5453;50.852;7.102;2022-10-16T07:30:27;16.40;99.90
10802;DHT22;5453;50.852;7.102;2022-10-16T07:32:59;16.40;99.90
10802;DHT22;5453;50.852;7.102;2022-10-16T07:35:32;16.30;99.90
10802;DHT22;5453;50.852;7.102;2022-10-16T07:38:04;16.30;99.90
10802;DHT22;5453;50.852;7.102;2022-10-16T07:40:36;16.30;99.90
10802;DHT22;5453;50.852;7.102;2022-10-16T07:43:08;16.20;99.90
10802;DHT22;5453;50.852;7.102;2022-10-16T07:45:47;16.30;99.90
10802;DHT22;5453;50.852;7.102;2022-10-16T07:48:20;16.30;99.90
10802;DHT22;5453;50.852;7.102;2022-10-16T07:50:57;16.30;99.90
10802;DHT22;5453;50.852;7.102;2022-10-16T07:53:30;16.40;99.90
10802;DHT22;5453;50.852;7.102;2022-10-16T07:56:04;16.40;99.90
10802;DHT22;5453;50.852;7.102;2022-10-16T07:58:37;16.40;99.90
10802;DHT22;5453;50.852;7.102;2022-10-16T08:01:11;16.50;99.90
10802;DHT22;5453;50.852;7.102;2022-10-16T08:03:45;16.70;99.90
10802;DHT22;5453;50.852;7.102;2022-10-16T08:06:21;16.80;99.90
10802;DHT22;5453;50.852;7.102;2022-10-16T08:08:54;16.90;99.90
10802;DHT22;5453;50.852;7.102;2022-10-16T08:11:27;16.80;99.90
10802;DHT22;5453;50.852;7.102;2022-10-16T08:14:01;16.80;99.90
10802;DHT22;5453;50.852;7.102;2022-10-16T08:16:33;16.80;99.90
10802;DHT22;5453;50.852;7.102;2022-10-16T08:19:05;16.80;99.90
10802;DHT22;5453;50.852;7.102;2022-10-16T08:21:39;17.20;99.90
10802;DHT22;5453;50.852;7.102;2022-10-16T08:24:11;18.00;99.90
10802;DHT22;5453;50.852;7.102;2022-10-16T08:26:43;18.80;99.90
10802;DHT22;5453;50.852;7.102;2022-10-16T08:29:16;19.70;99.90
10802;DHT22;5453;50.852;7.102;2022-10-16T08:31:48;20.40;99.90
10802;DHT22;5453;50.852;7.102;2022-10-16T08:34:21;20.90;99.90
10802;DHT22;5453;50.852;7.102;2022-10-16T08:36:55;21.50;99.90
10802;DHT22;5453;50.852;7.102;2022-10-16T08:39:27;21.90;99.90
10802;DHT22;5453;50.852;7.102;2022-10-16T08:42:13;22.10;99.90
10802;DHT22;5453;50.852;7.102;2022-10-16T08:45:12;22.20;99.90
10802;DHT22;5453;50.852;7.102;2022-10-16T08:48:04;22.20;99.60
10802;DHT22;5453;50.852;7.102;2022-10-16T08:50:40;22.10;99.60
10802;DHT22;5453;50.852;7.102;2022-10-16T08:53:18;22.10;99.50
10802;DHT22;5453;50.852;7.102;2022-10-16T08:55:53;22.10;99.00
10802;DHT22;5453;50.852;7.102;2022-10-16T08:58:27;22.10;99.20
10802;DHT22;5453;50.852;7.102;2022-10-16T09:01:03;22.10;98.90
10802;DHT22;5453;50.852;7.102;2022-10-16T09:03:47;22.10;98.80
10802;DHT22;5453;50.852;7.102;2022-10-16T09:06:44;22.20;98.60
10802;DHT22;5453;50.852;7.102;2022-10-16T09:09:33;22.10;98.40
10802;DHT22;5453;50.852;7.102;2022-10-16T09:12:18;22.00;98.40
10802;DHT22;5453;50.852;7.102;2022-10-16T09:15:01;22.00;98.50
10802;DHT22;5453;50.852;7.102;2022-10-16T09:17:41;22.00;98.50
10802;DHT22;5453;50.852;7.102;2022-10-16T09:20:29;22.20;98.50
10802;DHT22;5453;50.852;7.102;2022-10-16T09:23:16;22.20;97.50
10802;DHT22;5453;50.852;7.102;2022-10-16T09:25:50;22.30;97.70
10802;DHT22;5453;50.852;7.102;2022-10-16T09:28:22;22.40;97.40
10802;DHT22;5453;50.852;7.102;2022-10-16T09:30:55;22.40;97.10
10802;DHT22;5453;50.852;7.102;2022-10-16T09:33:30;22.40;96.90
10802;DHT22;5453;50.852;7.102;2022-10-16T09:36:05;22.40;97.00
10802;DHT22;5453;50.852;7.102;2022-10-16T09:38:37;22.50;97.00
10802;DHT22;5453;50.852;7.102;2022-10-16T09:41:17;22.40;96.90
10802;DHT22;5453;50.852;7.102;2022-10-16T09:43:52;22.50;97.00
10802;DHT22;5453;50.852;7.102;2022-10-16T09:46:27;22.70;97.20
10802;DHT22;5453;50.852;7.102;2022-10-16T09:49:00;23.00;96.20
10802;DHT22;5453;50.852;7.102;2022-10-16T09:51:35;23.10;95.40
10802;DHT22;5453;50.852;7.102;2022-10-16T09:54:14;23.20;95.30
10802;DHT22;5453;50.852;7.102;2022-10-16T09:56:49;23.20;94.80
10802;DHT22;5453;50.852;7.102;2022-10-16T09:59:22;23.30;94.80
10802;DHT22;5453;50.852;7.102;2022-10-16T10:02:01;23.30;94.20
10802;DHT22;5453;50.852;7.102;2022-10-16T10:04:40;23.30;94.20
10802;DHT22;5453;50.852;7.102;2022-10-16T10:07:18;23.30;94.40
10802;DHT22;5453;50.852;7.102;2022-10-16T10:09:53;23.30;94.50
10802;DHT22;5453;50.852;7.102;2022-10-16T10:12:29;23.30;94.50
10802;DHT22;5453;50.852;7.102;2022-10-16T10:15:05;23.30;93.80
10802;DHT22;5453;50.852;7.102;2022-10-16T10:17:46;23.20;93.90
10802;DHT22;5453;50.852;7.102;2022-10-16T10:20:25;23.20;93.50
10802;DHT22;5453;50.852;7.102;2022-10-16T10:22:59;23.20;93.50
10802;DHT22;5453;50.852;7.102;2022-10-16T10:25:41;23.20;93.30
10802;DHT22;5453;50.852;7.102;2022-10-16T10:28:47;23.20;93.30
10802;DHT22;5453;50.852;7.102;2022-10-16T10:31:28;23.30;93.10
10802;DHT22;5453;50.852;7.102;2022-10-16T10:34:11;23.40;92.80
10802;DHT22;5453;50.852;7.102;2022-10-16T10:37:04;23.40;92.00
10802;DHT22;5453;50.852;7.102;2022-10-16T10:40:00;23.30;92.10
10802;DHT22;5453;50.852;7.102;2022-10-16T10:42:40;23.20;92.00
10802;DHT22;5453;50.852;7.102;2022-10-16T10:45:23;23.00;92.70
10802;DHT22;5453;50.852;7.102;2022-10-16T10:48:19;23.00;93.10
10802;DHT22;5453;50.852;7.102;2022-10-16T10:50:58;23.10;93.20
10802;DHT22;5453;50.852;7.102;2022-10-16T10:53:40;23.20;92.90
10802;DHT22;5453;50.852;7.102;2022-10-16T10:56:24;23.40;92.50
10802;DHT22;5453;50.852;7.102;2022-10-16T11:02:34;23.50;91.10
10802;DHT22;5453;50.852;7.102;2022-10-16T11:05:28;23.60;90.80
10802;DHT22;5453;50.852;7.102;2022-10-16T11:08:10;23.60;90.80
10802;DHT22;5453;50.852;7.102;2022-10-16T11:10:50;23.70;90.40
10802;DHT22;5453;50.852;7.102;2022-10-16T11:13:30;23.70;90.60
10802;DHT22;5453;50.852;7.102;2022-10-16T11:16:11;23.80;90.70
10802;DHT22;5453;50.852;7.102;2022-10-16T11:18:51;23.80;90.60
10802;DHT22;5453;50.852;7.102;2022-10-16T11:21:30;23.90;90.00
10802;DHT22;5453;50.852;7.102;2022-10-16T11:24:15;23.90;90.00
10802;DHT22;5453;50.852;7.102;2022-10-16T11:26:52;23.80;88.50
10802;DHT22;5453;50.852;7.102;2022-10-16T11:29:29;23.70;87.70
10802;DHT22;5453;50.852;7.102;2022-10-16T11:32:11;23.60;86.50
10802;DHT22;5453;50.852;7.102;2022-10-16T11:34:52;23.60;86.50
10802;DHT22;5453;50.852;7.102;2022-10-16T11:37:31;23.60;85.80
10802;DHT22;5453;50.852;7.102;2022-10-16T11:40:17;23.70;86.20
10802;DHT22;5453;50.852;7.102;2022-10-16T11:42:54;23.80;86.00
10802;DHT22;5453;50.852;7.102;2022-10-16T11:45:34;23.70;84.70
10802;DHT22;5453;50.852;7.102;2022-10-16T11:48:14;23.50;84.20
10802;DHT22;5453;50.852;7.102;2022-10-16T11:50:53;23.40;83.70
10802;DHT22;5453;50.852;7.102;2022-10-16T11:53:38;23.20;84.40
10802;DHT22;5453;50.852;7.102;2022-10-16T11:56:17;23.10;86.40
10802;DHT22;5453;50.852;7.102;2022-10-16T11:58:55;23.00;87.50
10802;DHT22;5453;50.852;7.102;2022-10-16T12:01:32;22.90;87.60
10802;DHT22;5453;50.852;7.102;2022-10-16T12:04:20;22.90;88.00
10802;DHT22;5453;50.852;7.102;2022-10-16T12:07:02;22.90;90.00
10802;DHT22;5453;50.852;7.102;2022-10-16T12:09:38;22.90;90.40
10802;DHT22;5453;50.852;7.102;2022-10-16T12:12:25;22.90;89.80
10802;DHT22;5453;50.852;7.102;2022-10-16T12:15:15;22.90;90.20
10802;DHT22;5453;50.852;7.102;2022-10-16T12:17:51;22.80;89.90
10802;DHT22;5453;50.852;7.102;2022-10-16T12:20:27;22.80;90.00
10802;DHT22;5453;50.852;7.102;2022-10-16T12:23:04;22.70;90.40
10802;DHT22;5453;50.852;7.102;2022-10-16T12:25:38;22.70;90.60
10802;DHT22;5453;50.852;7.102;2022-10-16T12:28:20;22.70;90.90
10802;DHT22;5453;50.852;7.102;2022-10-16T12:30:55;22.70;90.90
10802;DHT22;5453;50.852;7.102;2022-10-16T12:33:30;22.80;90.70
10802;DHT22;5453;50.852;7.102;2022-10-16T12:36:06;22.90;90.20
10802;DHT22;5453;50.852;7.102;2022-10-16T12:38:50;23.00;88.50
10802;DHT22;5453;50.852;7.102;2022-10-16T12:41:25;23.00;87.10
10802;DHT22;5453;50.852;7.102;2022-10-16T12:43:59;23.00;87.40
10802;DHT22;5453;50.852;7.102;2022-10-16T12:46:38;23.00;87.90
10802;DHT22;5453;50.852;7.102;2022-10-16T12:49:30;23.10;88.10
10802;DHT22;5453;50.852;7.102;2022-10-16T12:52:04;23.00;88.30
10802;DHT22;5453;50.852;7.102;2022-10-16T12:54:38;23.00;88.90
10802;DHT22;5453;50.852;7.102;2022-10-16T12:57:36;23.00;88.90
10802;DHT22;5453;50.852;7.102;2022-10-16T13:00:20;22.90;88.20
10802;DHT22;5453;50.852;7.102;2022-10-16T13:03:24;22.80;87.80
10802;DHT22;5453;50.852;7.102;2022-10-16T13:06:15;22.80;87.50
10802;DHT22;5453;50.852;7.102;2022-10-16T13:11:52;22.70;88.00
10802;DHT22;5453;50.852;7.102;2022-10-16T13:14:50;22.70;88.60
10802;DHT22;5453;50.852;7.102;2022-10-16T13:17:37;22.70;87.50
10802;DHT22;5453;50.852;7.102;2022-10-16T13:20:20;22.60;87.50
10802;DHT22;5453;50.852;7.102;2022-10-16T13:23:03;22.60;88.30
10802;DHT22;5453;50.852;7.102;2022-10-16T13:25:49;22.50;89.20
10802;DHT22;5453;50.852;7.102;2022-10-16T13:28:32;22.40;88.50
10802;DHT22;5453;50.852;7.102;2022-10-16T13:31:05;22.20;88.70
10802;DHT22;5453;50.852;7.102;2022-10-16T13:33:48;22.10;89.00
10802;DHT22;5453;50.852;7.102;2022-10-16T13:36:27;22.00;89.30
10802;DHT22;5453;50.852;7.102;2022-10-16T13:39:10;22.00;90.00
10802;DHT22;5453;50.852;7.102;2022-10-16T13:41:45;21.90;90.20
10802;DHT22;5453;50.852;7.102;2022-10-16T13:44:20;21.90;90.50
10802;DHT22;5453;50.852;7.102;2022-10-16T13:46:58;21.90;90.80
10802;DHT22;5453;50.852;7.102;2022-10-16T13:49:30;21.90;91.20
10802;DHT22;5453;50.852;7.102;2022-10-16T13:52:03;21.90;91.40
10802;DHT22;5453;50.852;7.102;2022-10-16T13:54:35;21.90;91.60
10802;DHT22;5453;50.852;7.102;2022-10-16T13:57:07;21.90;91.60
10802;DHT22;5453;50.852;7.102;2022-10-16T13:59:41;21.90;91.70
10802;DHT22;5453;50.852;7.102;2022-10-16T14:02:20;21.80;91.80
10802;DHT22;5453;50.852;7.102;2022-10-16T14:04:54;21.80;92.00
10802;DHT22;5453;50.852;7.102;2022-10-16T14:07:29;21.70;92.20
10802;DHT22;5453;50.852;7.102;2022-10-16T14:10:05;21.60;92.40
10802;DHT22;5453;50.852;7.102;2022-10-16T14:12:39;21.60;92.60
10802;DHT22;5453;50.852;7.102;2022-10-16T14:15:17;21.50;92.90
10802;DHT22;5453;50.852;7.102;2022-10-16T14:17:52;21.50;93.00
10802;DHT22;5453;50.852;7.102;2022-10-16T14:20:26;21.50;93.10
10802;DHT22;5453;50.852;7.102;2022-10-16T14:23:02;21.40;93.20
10802;DHT22;5453;50.852;7.102;2022-10-16T14:25:36;21.40;93.50
10802;DHT22;5453;50.852;7.102;2022-10-16T14:28:16;21.40;93.70
10802;DHT22;5453;50.852;7.102;2022-10-16T14:30:52;21.40;94.10
10802;DHT22;5453;50.852;7.102;2022-10-16T14:33:32;21.40;94.00
10802;DHT22;5453;50.852;7.102;2022-10-16T14:36:10;21.40;94.20
10802;DHT22;5453;50.852;7.102;2022-10-16T14:38:57;21.40;94.20
10802;DHT22;5453;50.852;7.102;2022-10-16T14:41:33;21.40;
10802;DHT22;5453;50.852;7.102;2022-10-16T14:44:13;21.30;94.40
10802;DHT22;5453;50.852;7.102;2022-10-16T14:46:48;21.30;94.40
10802;DHT22;5453;50.852;7.102;2022-10-16T14:49:20;21.40;94.30
10802;DHT22;5453;50.852;7.102;2022-10-16T14:51:53;21.40;94.10
10802;DHT22;5453;50.852;7.102;2022-10-16T14:54:25;21.40;94.20
10802;DHT22;5453;50.852;7.102;2022-10-16T14:56:58;21.30;94.40
10802;DHT22;5453;50.852;7.102;2022-10-16T14:59:33;21.30;94.60
10802;DHT22;5453;50.852;7.102;2022-10-16T15:02:20;21.30;94.90
10802;DHT22;5453;50.852;7.102;2022-10-16T15:04:55;21.30;95.00
10802;DHT22;5453;50.852;7.102;2022-10-16T15:07:28;21.20;95.10
10802;DHT22;5453;50.852;7.102;2022-10-16T15:10:00;21.20;95.60
10802;DHT22;5453;50.852;7.102;2022-10-16T15:12:32;21.20;96.20
10802;DHT22;5453;50.852;7.102;2022-10-16T15:15:26;21.10;96.60
10802;DHT22;5453;50.852;7.102;2022-10-16T15:18:07;21.10;97.40
10802;DHT22;5453;50.852;7.102;2022-10-16T15:20:39;21.00;97.60
10802;DHT22;5453;50.852;7.102;2022-10-16T15:23:14;21.00;98.00
10802;DHT22;5453;50.852;7.102;2022-10-16T15:25:48;20.90;98.50
10802;DHT22;5453;50.852;7.102;2022-10-16T15:28:22;20.80;98.90
10802;DHT22;5453;50.852;7.102;2022-10-16T15:30:55;20.70;99.20
10802;DHT22;5453;50.852;7.102;2022-10-16T15:33:29;20.70;99.50
10802;DHT22;5453;50.852;7.102;2022-10-16T15:36:05;20.60;99.70
10802;DHT22;5453;50.852;7.102;2022-10-16T15:38:37;20.50;99.90
10802;DHT22;5453;50.852;7.102;2022-10-16T15:41:09;20.50;99.90
10802;DHT22;5453;50.852;7.102;2022-10-16T15:43:42;20.40;99.90
10802;DHT22;5453;50.852;7.102;2022-10-16T15:46:14;20.40;99.90
10802;DHT22;5453;50.852;7.102;2022-10-16T15:48:48;20.40;99.90
10802;DHT22;5453;50.852;7.102;2022-10-16T15:51:21;20.30;99.90
10802;DHT22;5453;50.852;7.102;2022-10-16T15:53:53;20.30;99.90
10802;DHT22;5453;50.852;7.102;2022-10-16T15:56:25;20.20;99.90
10802;DHT22;5453;50.852;7.102;2022-10-16T15:58:59;20.20;99.90
10802;DHT22;5453;50.852;7.102;2022-10-16T16:01:32;20.20;99.90
10802;DHT22;5453;50.852;7.102;2022-10-16T16:04:06;20.10;99.90
10802;DHT22;5453;50.852;7.102;2022-10-16T16:06:38;20.10;99.90
10802;DHT22;5453;50.852;7.102;2022-10-16T16:09:15;20.10;99.90
10802;DHT22;5453;50.852;7.102;2022-10-16T16:11:47;20.00;99.90
10802;DHT22;5453;50.852;7.102;2022-10-16T16:14:19;20.00;99.90
10802;DHT22;5453;50.852;7.102;2022-10-16T16:16:52;20.00;99.90
10802;DHT22;5453;50.852;7.102;2022-10-16T16:19:25;19.90;99.90
10802;DHT22;5453;50.852;7.102;2022-10-16T16:21:57;19.90;99.90
10802;DHT22;5453;50.852;7.102;2022-10-16T16:24:29;19.90;99.90
10802;DHT22;5453;50.852;7.102;2022-10-16T16:27:01;19.90;99.90
10802;DHT22;5453;50.852;7.102;2022-10-16T16:29:33;19.80;99.90
10802;DHT22;5453;50.852;7.102;2022-10-16T16:32:05;19.80;99.90
10802;DHT22;5453;50.852;7.102;2022-10-16T16:34:39;19.80;99.90
10802;DHT22;5453;50.852;7.102;2022-10-16T16:37:11;19.80;99.90
10802;DHT22;5453;50.852;7.102;2022-10-16T16:39:43;19.70;99.90
10802;DHT22;5453;50.852;7.102;2022-10-16T16:42:15;19.70;99.90
10802;DHT22;5453;50.852;7.102;2022-10-16T16:44:47;19.70;99.90
10802;DHT22;5453;50.852;7.102;2022-10-16T16:47:20;19.70;99.90
10802;DHT22;5453;50.852;7.102;2022-10-16T16:49:53;19.70;99.90